Latest Weather Observations for Gabo Island

IDN60801

Issued at 4:03 am EST Saturday 28 May 2016 (issued every 30 minutes, with the page automatically refreshed every 10 minutes)

About weather observations | Map of weather stations | Latest weather observations for NSW | Other Formats
Station Details ID: 084016 Name: GABO ISLAND LIGHTHOUSE Lat: -37.57 Lon: 149.92 Height: 15.2 m
Data from the previous 72 hours. | See also: Recent months at Gabo Island
Date/Time
EST
Temp
°C
App
Temp
°C
Dew
Point
Rel
Hum
%
Delta-T
°C
Wind Press
QNH
hPa
Press
MSL
hPa
Rain
since 9 am
mm
Dir
 
Spd
km/h
Gust
km/h
Spd
kts
Gust
kts
28/04:00am 10.8 1.7 7.0 77 1.8 W 44 56 24 30 1004.8 - 15.2
28/03:30am 10.7 1.6 6.9 77 1.8 W 44 54 24 29 1004.8 - 15.2
28/03:00am 10.6 0.9 7.5 81 1.5 W 48 59 26 32 1004.7 1004.7 15.2
28/02:30am 11.0 1.8 7.9 81 1.5 W 46 57 25 31 1005.1 - 15.0
28/02:00am 11.6 3.3 7.9 78 1.8 W 41 54 22 29 1005.2 - 15.0
28/01:30am 11.6 2.9 7.7 77 1.9 W 43 54 23 29 1004.9 - 15.0
28/01:00am 11.5 3.5 7.6 77 1.9 W 39 50 21 27 1004.9 - 15.0
28/12:30am 11.9 3.8 8.5 80 1.7 W 41 48 22 26 1004.8 - 15.0
28/12:00am 11.5 3.8 8.5 82 1.5 W 39 50 21 27 1004.9 1004.9 15.0
 
Date/Time
EST
Temp
°C
App
Temp
°C
Dew
Point
Rel
Hum
%
Delta-T
°C
Wind Press
QNH
hPa
Press
MSL
hPa
Rain
since 9 am
mm
Dir
 
Spd
km/h
Gust
km/h
Spd
kts
Gust
kts
27/11:44pm 11.5 2.9 8.3 81 1.6 W 43 61 23 33 1004.8 - 15.0
27/11:30pm 11.5 3.8 8.7 83 1.4 W 39 50 21 27 1004.9 - 15.0
27/11:00pm 11.6 3.1 9.2 85 1.2 W 44 54 24 29 1004.7 - 15.0
27/10:30pm 11.4 2.5 9.2 86 1.1 WSW 46 57 25 31 1004.4 - 15.0
27/10:00pm 11.2 2.4 9.4 89 0.9 W 46 59 25 32 1004.3 - 15.0
27/09:30pm 11.3 2.1 9.5 89 0.9 W 48 59 26 32 1004.6 - 15.0
27/09:00pm 11.3 2.5 9.5 89 0.9 W 46 57 25 31 1004.6 1004.6 14.8
27/08:30pm 11.6 2.4 9.6 87 1.0 WSW 48 61 26 33 1004.2 - 14.8
27/08:00pm 11.8 3.5 10.0 89 0.9 WSW 44 56 24 30 1004.2 - 14.8
27/07:30pm 11.9 2.9 10.2 89 0.9 WSW 48 61 26 33 1003.9 - 14.6
27/07:00pm 12.0 3.3 10.1 88 1.0 WSW 46 59 25 32 1003.5 - 14.6
27/06:30pm 12.2 3.5 10.1 87 1.1 WSW 46 72 25 39 1003.3 - 14.6
27/06:00pm 12.3 1.3 9.1 81 1.6 WSW 57 80 31 43 1002.6 1002.6 14.6
27/05:43pm 12.3 0.8 10.0 86 1.2 WSW 61 80 33 43 1002.4 - 14.6
27/05:30pm 11.8 0.9 9.6 86 1.1 WSW 57 70 31 38 1002.3 - 14.4
27/05:00pm 12.0 0.4 9.9 87 1.1 WSW 61 83 33 45 1001.6 - 14.4
27/04:30pm 11.7 -1.4 9.7 87 1.0 SW 69 87 37 47 1001.1 - 13.8
27/04:00pm 11.7 -0.2 9.9 89 0.9 WSW 63 83 34 45 1000.5 - 12.8
27/03:30pm 12.2 -1.2 10.7 90 0.8 SW 72 95 39 51 1000.1 - 10.8
27/03:00pm 11.6 -0.6 10.2 91 0.7 WSW 65 89 35 48 999.7 999.7 9.0
27/02:33pm 11.7 -1.0 10.1 90 0.8 WSW 67 89 36 48 999.1 - 7.4
27/02:30pm 12.1 -0.4 10.8 92 0.7 WSW 67 83 36 45 999.2 - 7.4
27/02:00pm 12.1 -1.5 10.2 88 1.0 WSW 72 91 39 49 998.5 - 6.0
27/01:30pm 11.7 -1.6 9.9 89 0.9 WSW 70 91 38 49 998.2 - 4.6
27/01:05pm 11.6 -0.8 9.8 89 0.9 WSW 65 83 35 45 997.9 - 3.2
27/01:00pm 11.6 -0.4 9.8 89 0.9 WSW 63 74 34 40 997.9 - 3.0
27/12:30pm 11.6 -0.8 9.6 87 1.0 WSW 65 85 35 46 997.7 - 1.0
27/12:02pm 11.6 -0.5 9.4 86 1.1 WSW 63 82 34 44 997.6 - 0.6
27/12:00pm 11.4 -1.2 9.0 85 1.2 WSW 65 82 35 44 997.6 997.6 0.6
27/11:30am 11.6 -1.4 8.6 82 1.5 WSW 67 87 36 47 997.5 - 0.4
27/11:00am 11.2 -1.4 9.0 86 1.1 WSW 65 87 35 47 997.7 - 0.4
27/10:30am 11.0 -0.7 9.2 89 0.9 WSW 61 83 33 45 998.1 - 0.2
27/10:06am 11.4 -0.8 8.8 84 1.3 WSW 63 82 34 44 997.9 - 0.0
27/10:00am 11.3 -1.3 8.7 84 1.3 WSW 65 82 35 44 998.0 - 0.0
27/09:30am 10.9 -1.5 8.3 84 1.3 WSW 63 82 34 44 998.0 - 0.0
27/09:07am 10.8 -1.5 8.4 85 1.2 W 63 83 34 45 997.9 - 0.0
27/09:00am 10.6 -1.1 7.9 83 1.3 W 59 76 32 41 998.0 998.0 7.2
27/08:33am 10.8 -0.9 7.7 81 1.5 WSW 59 80 32 43 997.7 - 7.0
27/08:30am 11.0 -1.0 8.2 83 1.4 WSW 61 76 33 41 997.7 - 7.0
27/08:01am 10.8 -1.6 8.2 84 1.3 WSW 63 82 34 44 997.6 - 7.0
27/08:00am 10.7 -2.1 8.0 83 1.3 WSW 65 82 35 44 997.6 - 7.0
27/07:31am 11.5 -0.6 7.8 78 1.8 WSW 61 80 33 43 997.5 - 6.8
27/07:30am 11.4 -1.1 7.7 78 1.8 WSW 63 80 34 43 997.5 - 6.8
27/07:13am 11.7 -0.5 7.2 74 2.2 W 61 80 33 43 997.4 - 6.8
27/07:00am 11.5 -1.2 6.7 72 2.3 WSW 63 76 34 41 997.2 - 6.8
27/06:30am 11.5 -1.1 7.2 75 2.1 WSW 63 83 34 45 997.2 - 6.8
27/06:00am 11.8 0.1 7.7 76 2.0 WSW 59 82 32 44 997.1 997.1 6.8
27/05:33am 11.5 -0.8 6.9 73 2.2 WSW 61 82 33 44 997.1 - 6.8
27/05:30am 11.6 -0.6 7.3 75 2.1 WSW 61 78 33 42 997.2 - 6.8
27/05:00am 11.7 -0.5 7.2 74 2.2 W 61 82 33 44 997.0 - 6.8
27/04:30am 11.6 -1.3 7.7 77 1.9 W 65 87 35 47 997.0 - 6.8
27/04:00am 11.8 0.7 8.6 81 1.6 WSW 57 76 31 41 997.2 - 6.8
27/03:30am 11.7 0.1 8.3 79 1.7 WSW 59 82 32 44 997.2 - 6.6
27/03:00am 11.7 -0.2 8.5 81 1.6 WSW 61 80 33 43 997.3 997.3 6.6
27/02:36am 11.7 0.1 8.1 78 1.8 W 59 78 32 42 997.2 - 6.6
27/02:30am 11.8 0.3 8.6 81 1.6 W 59 74 32 40 997.3 - 6.6
27/02:09am 11.7 -0.3 8.1 78 1.8 W 61 82 33 44 997.4 - 6.6
27/02:00am 11.7 0.5 8.5 81 1.6 W 57 72 31 39 997.3 - 6.6
27/01:30am 12.1 0.4 7.8 75 2.1 W 59 83 32 45 997.2 - 6.6
27/01:11am 12.1 0.9 8.3 77 1.9 W 57 76 31 41 997.3 - 6.6
27/01:00am 12.0 0.8 8.4 78 1.8 W 57 72 31 39 997.3 - 6.6
27/12:43am 11.7 0.6 8.1 78 1.8 W 56 74 30 40 997.3 - 6.6
27/12:30am 11.8 0.8 8.4 80 1.7 W 56 70 30 38 997.5 - 6.6
27/12:01am 11.5 1.2 8.0 79 1.7 W 52 72 28 39 997.6 - 6.6
27/12:00am 11.6 1.3 8.2 79 1.7 W 52 65 28 35 997.6 997.6 6.6
 
Date/Time
EST
Temp
°C
App
Temp
°C
Dew
Point
Rel
Hum
%
Delta-T
°C
Wind Press
QNH
hPa
Press
MSL
hPa
Rain
since 9 am
mm
Dir
 
Spd
km/h
Gust
km/h
Spd
kts
Gust
kts
26/11:47pm 11.6 1.7 8.4 81 1.6 W 50 69 27 37 997.8 - 6.6
26/11:30pm 11.5 1.2 8.0 79 1.7 W 52 65 28 35 998.1 - 6.6
26/11:19pm 11.3 0.9 7.8 79 1.7 W 52 72 28 39 998.3 - 6.6
26/11:00pm 11.3 1.0 8.3 82 1.5 W 52 65 28 35 998.5 - 6.6
26/10:31pm 11.0 1.6 8.6 85 1.2 W 48 67 26 36 998.8 - 6.6
26/10:30pm 11.0 1.1 8.4 84 1.3 W 50 67 27 36 998.8 - 6.6
26/10:26pm 11.0 1.6 8.6 85 1.2 W 48 67 26 36 998.9 - 6.6
26/10:00pm 11.0 2.4 9.0 87 1.0 W 44 59 24 32 999.1 - 6.6
26/09:30pm 11.2 1.9 9.0 86 1.1 W 48 61 26 33 999.1 - 6.6
26/09:00pm 11.2 2.8 9.6 90 0.8 W 44 59 24 32 999.1 999.1 6.6
26/08:30pm 11.6 4.2 9.8 89 0.9 W 39 50 21 27 999.0 - 6.6
26/08:00pm 11.5 4.1 9.9 90 0.8 W 39 48 21 26 999.1 - 6.6
26/07:30pm 11.3 4.6 9.7 90 0.8 W 35 44 19 24 999.0 - 6.4
26/07:00pm 11.4 5.1 9.6 89 0.9 W 33 44 18 24 999.0 - 6.0
26/06:30pm 11.6 5.3 9.6 87 1.0 W 33 43 18 23 998.9 - 5.8
26/06:00pm 11.7 5.3 9.5 86 1.1 W 33 43 18 23 998.9 998.9 5.8
26/05:30pm 11.8 6.0 9.6 86 1.1 W 30 37 16 20 998.7 - 5.8
26/05:00pm 11.9 5.6 9.8 87 1.1 W 33 41 18 22 998.6 - 5.8
26/04:30pm 12.0 5.8 9.9 87 1.1 WSW 33 41 18 22 998.6 - 5.6
26/04:00pm 12.2 6.1 9.7 85 1.3 WSW 32 39 17 21 998.8 - 5.4
26/03:30pm 12.4 6.9 10.5 88 1.0 WSW 30 33 16 18 998.9 - 5.4
26/03:00pm 12.4 6.9 10.7 89 0.9 WSW 30 35 16 19 999.0 999.0 5.4
26/02:30pm 12.3 7.3 10.8 90 0.8 WSW 28 33 15 18 999.2 - 5.4
26/02:00pm 12.2 7.1 10.7 90 0.8 W 28 35 15 19 999.5 - 5.0
26/01:30pm 12.3 8.1 11.0 92 0.7 W 24 28 13 15 999.9 - 4.2
26/01:00pm 12.3 8.8 10.8 90 0.8 WNW 20 26 11 14 1000.2 - 3.4
26/12:30pm 12.5 9.1 10.4 87 1.1 WNW 19 24 10 13 1000.2 - 1.8
26/12:00pm 12.8 10.7 9.9 82 1.5 NW 11 17 6 9 1000.2 1000.2 0.2
26/11:30am 13.6 11.3 9.1 74 2.3 NW 11 17 6 9 1000.6 - 0.0
26/11:00am 14.0 11.8 9.3 73 2.4 WNW 11 15 6 8 1001.4 - 0.0
26/10:30am 14.1 11.7 8.8 70 2.7 NW 11 19 6 10 1002.0 - 0.0
26/10:00am 14.2 11.5 7.3 63 3.4 NW 11 13 6 7 1002.5 - 0.0
26/09:30am 14.3 11.5 6.9 61 3.6 NW 11 17 6 9 1003.0 - 0.0
26/09:00am 14.5 11.7 7.0 60 3.7 WNW 11 13 6 7 1003.2 1003.3 0.0
26/08:30am 14.8 13.2 8.0 64 3.4 N 6 7 3 4 1003.6 - 0.0
26/08:00am 14.5 12.0 6.5 58 3.9 NW 9 13 5 7 1003.5 - 0.0
26/07:30am 14.2 12.1 6.6 60 3.7 NW 7 9 4 5 1003.8 - 0.0
26/07:00am 14.2 11.6 6.1 58 3.9 NW 9 13 5 7 1004.1 - 0.0
26/06:30am 14.3 11.1 5.2 54 4.3 NNW 11 15 6 8 1004.3 - 0.0
26/06:00am 13.2 10.5 5.6 60 3.6 WNW 9 13 5 7 1004.7 1004.8 0.0
26/05:30am 12.7 10.6 6.7 67 2.9 W 7 9 4 5 1005.0 - 0.0
26/05:00am 12.7 10.3 7.1 69 2.7 W 9 11 5 6 1005.1 - 0.0
26/04:30am 12.8 9.3 7.3 69 2.7 W 15 17 8 9 1005.5 - 0.0
26/04:00am 13.0 10.7 7.3 68 2.8 WNW 9 11 5 6 1005.6 - 0.0
26/03:30am 13.5 11.7 7.8 68 2.8 N 7 9 4 5 1005.6 - 0.0
26/03:00am 13.8 13.0 6.3 60 3.6 CALM 0 7 0 4 1006.3 1006.4 0.0
26/02:30am 14.0 12.3 7.7 66 3.1 N 6 11 3 6 1007.1 - 0.0
26/02:00am 14.3 11.4 6.4 59 3.8 N 11 15 6 8 1007.5 - 0.0
26/01:30am 14.1 10.7 5.9 57 3.9 N 13 20 7 11 1008.1 - 0.0
26/01:00am 14.0 10.6 5.8 57 3.9 N 13 19 7 10 1008.5 - 0.0
26/12:30am 14.0 11.1 4.8 54 4.3 N 9 15 5 8 1008.7 - 0.0
26/12:00am 14.3 9.8 4.1 50 4.7 NNW 17 19 9 10 1009.0 1008.9 0.0
 
Date/Time
EST
Temp
°C
App
Temp
°C
Dew
Point
Rel
Hum
%
Delta-T
°C
Wind Press
QNH
hPa
Press
MSL
hPa
Rain
since 9 am
mm
Dir
 
Spd
km/h
Gust
km/h
Spd
kts
Gust
kts
25/11:30pm 14.6 10.8 5.8 55 4.2 N 15 20 8 11 1009.3 - 0.0
25/11:00pm 13.7 11.2 6.7 62 3.4 N 9 11 5 6 1009.9 - 0.0
25/10:30pm 14.7 11.8 6.7 58 3.9 N 11 15 6 8 1010.4 - 0.0
25/10:00pm 14.9 9.7 5.7 54 4.4 N 22 26 12 14 1010.4 - 0.0
25/09:30pm 14.7 9.9 7.2 61 3.7 N 22 28 12 15 1010.8 - 0.0
25/09:00pm 13.6 11.2 7.0 64 3.2 N 9 9 5 5 1011.1 1011.1 0.0
25/08:30pm 13.4 9.6 7.7 68 2.8 NNE 17 22 9 12 1011.1 - 0.0
25/08:00pm 13.8 9.7 6.3 60 3.6 N 17 22 9 12 1010.9 - 0.0
25/07:30pm 13.3 9.8 7.4 67 2.9 N 15 20 8 11 1011.2 - 0.0
25/07:00pm 13.0 9.7 8.2 72 2.4 N 15 19 8 10 1011.4 - 0.0
25/06:30pm 13.1 10.1 9.1 77 2.0 N 15 17 8 9 1011.6 - 0.0
25/06:00pm 13.4 10.5 9.5 77 2.0 N 15 17 8 9 1011.8 1011.8 0.0
25/05:30pm 13.6 10.7 9.5 76 2.1 NNE 15 17 8 9 1012.0 - 0.0
25/05:00pm 13.7 11.6 9.8 77 2.0 N 11 17 6 9 1011.6 - 0.0
25/04:30pm 13.9 13.6 8.7 71 2.6 CALM 0 0 0 0 1011.7 - 0.0
25/04:00pm 14.4 13.4 8.7 68 2.9 SSW 4 7 2 4 1012.1 - 0.0
25/03:30pm 14.6 13.2 8.9 68 2.9 SSW 6 7 3 4 1012.1 - 0.0
25/03:00pm 15.1 13.5 8.8 66 3.2 SSW 7 9 4 5 1011.9 1012.0 0.0
25/02:30pm 14.7 12.0 8.8 68 3.0 SSW 13 17 7 9 1012.2 - 0.0
25/02:00pm 14.8 11.3 8.7 67 3.1 SSW 17 20 9 11 1012.3 - 0.0
25/01:30pm 14.2 9.2 8.2 67 3.0 SW 24 30 13 16 1012.7 - 0.0
25/01:00pm 14.2 8.8 8.0 66 3.1 SW 26 28 14 15 1013.0 - 0.0
25/12:30pm 14.4 8.7 8.4 67 3.0 SW 28 32 15 17 1013.2 - 0.0
25/12:00pm 14.4 8.2 7.7 64 3.3 SW 30 35 16 19 1013.6 1013.6 0.0
25/11:30am 14.4 8.5 7.5 63 3.4 WSW 28 35 15 19 1014.2 - 0.0
25/11:00am 14.9 9.0 7.6 61 3.6 WSW 28 35 15 19 1014.7 - 0.0
25/10:30am 14.2 9.0 7.3 63 3.4 W 24 30 13 16 1015.3 - 0.0
25/10:00am 13.9 7.9 7.1 63 3.3 W 28 35 15 19 1015.2 - 0.0
25/09:30am 13.5 7.3 8.0 69 2.7 W 30 35 16 19 1015.2 - 0.0
25/09:00am 12.1 6.2 7.6 74 2.2 W 28 35 15 19 1015.3 1015.4 4.6
25/08:30am 12.1 6.4 8.2 77 1.9 W 28 35 15 19 1015.7 - 4.6
25/08:00am 11.7 6.0 8.2 79 1.7 W 28 37 15 20 1015.8 - 4.6
25/07:30am 11.6 6.1 7.5 76 2.0 W 26 35 14 19 1016.0 - 4.6
25/07:00am 12.2 5.4 7.7 74 2.2 W 33 41 18 22 1015.8 - 4.6
25/06:30am 12.3 5.0 7.3 71 2.4 W 35 43 19 23 1015.5 - 4.6
25/06:00am 12.6 3.9 7.5 71 2.5 W 43 52 23 28 1015.0 1014.9 4.6
25/05:30am 12.7 5.2 7.8 72 2.4 W 37 50 20 27 1014.5 - 4.6
25/05:00am 12.5 4.6 7.8 73 2.3 W 39 46 21 25 1014.8 - 4.6
25/04:30am 12.4 5.2 7.5 72 2.4 W 35 43 19 23 1014.8 - 4.6

Other Formats:

Comma delimited format used in spreadsheet applications
http://www.bom.gov.au/fwo/IDN60801/IDN60801.94933.axf

JavaScript Object Notation format (JSON) in row-major order
http://www.bom.gov.au/fwo/IDN60801/IDN60801.94933.json